Nora, Nebraska
Current Conditions -  °F | °C
As of 9:15 AM on Thursday 18 Dec 2014 (Local Time) from KHJH Reporting Station
Haze Haze  
Wind Chill: 26°   Ceiling: 4400
Heat Index: 26°   Visibility: 5mi
Dew Point: 24°   Wind: 0mph
Humidity: 90%   Direction: NA
Pressure: 30.22"   Gusts: NA
Location:  40.2199°N, 98.0479°W
Report Text: KHJH 181515Z AUTO 00000KT 5SM BR SCT004 OVC044 M03/M04 A3022 RMK AO2 T10311045
Loading
Personal Weather Stations






























Interactive Weather Map New forecast layout! Learn more

10-Day Weather Forecast

Advertisements
Track Severe Weather on mobile